Malmstrom A F B, Montana
Current Conditions -  °F | °C
As of 12:56 PM on Wednesday 17 Dec 2014 (Local Time) from KGFA Reporting Station
Overcast Overcast  
Wind Chill:   Ceiling: 6500
Heat Index:   Visibility: 10mi
Dew Point: -2°   Wind: 0mph
Humidity: 93%   Direction: NA
Pressure: 29.88"   Gusts: NA
Location:  47.5102°N, 111.1959°W
Report Text: KGFA 171956Z AUTO 00000KT 10SM OVC065 00/M01 A2988 RMK AO2 SLP163 T10051015
Loading
Personal Weather Stations






























Interactive Weather Map New forecast layout! Learn more

10-Day Weather Forecast

Advertisements
Track Severe Weather on mobile